Time;durP1;ratioP1;P1;durP2;ratioP2;P2;SDS_P1;SDS_P2;PMS_P1;PMS_P2;Temp;Humidity;BMP_temperature;BMP_pressure;BME280_temperature;BME280_humidity;BME280_pressure;Samples;Min_cycle;Max_cycle;Signal;HPM_P1;HPM_P2
2023/12/24 00:00:15;;;;;;;14.07;5.03;;;20.80;80.90;;;;;;5031045;28;20217;-63
2023/12/24 00:02:42;;;;;;;9.43;5.23;;;20.80;80.70;;;;;;5034788;28;20469;-63
2023/12/24 00:05:08;;;;;;;11.35;6.05;;;20.80;81.10;;;;;;5036837;28;20966;-63
2023/12/24 00:07:35;;;;;;;9.82;5.32;;;20.80;80.70;;;;;;5034906;28;20202;-63
2023/12/24 00:10:02;;;;;;;10.23;5.45;;;20.80;80.70;;;;;;5036235;28;20203;-63
2023/12/24 00:12:29;;;;;;;11.38;5.97;;;20.80;81.10;;;;;;5037352;28;20194;-63
2023/12/24 00:14:55;;;;;;;9.48;5.38;;;20.80;80.90;;;;;;5027983;28;20569;-62
2023/12/24 00:17:23;;;;;;;12.52;5.00;;;20.70;80.50;;;;;;5035059;28;20667;-63
2023/12/24 00:19:50;;;;;;;6.85;4.80;;;20.70;80.60;;;;;;5034933;28;20207;-63
2023/12/24 00:22:17;;;;;;;9.15;5.25;;;20.70;80.70;;;;;;5034750;28;20225;-63
2023/12/24 00:24:45;;;;;;;10.73;5.20;;;20.70;80.70;;;;;;5035287;28;20789;-63
2023/12/24 00:27:12;;;;;;;9.65;5.18;;;20.70;81.00;;;;;;5038778;28;20376;-62
2023/12/24 00:29:38;;;;;;;12.73;5.00;;;20.70;80.60;;;;;;5033768;28;20217;-62
2023/12/24 00:32:06;;;;;;;12.48;5.55;;;20.70;80.80;;;;;;5038578;28;20200;-63
2023/12/24 00:34:34;;;;;;;12.43;6.00;;;20.70;80.60;;;;;;5039856;28;20690;-62
2023/12/24 00:37:01;;;;;;;9.80;5.38;;;20.70;80.90;;;;;;5037118;28;20191;-62
2023/12/24 00:39:27;;;;;;;6.60;4.22;;;20.70;80.90;;;;;;5038512;28;20224;-63
2023/12/24 00:41:54;;;;;;;8.95;4.75;;;20.70;81.10;;;;;;5038646;28;20202;-65
2023/12/24 00:44:21;;;;;;;9.00;4.47;;;20.70;80.70;;;;;;5036886;28;20195;-63
2023/12/24 00:46:47;;;;;;;9.07;5.15;;;20.60;81.00;;;;;;5033234;28;20210;-63
2023/12/24 00:49:14;;;;;;;6.70;4.82;;;20.50;80.80;;;;;;5036108;28;20245;-63
2023/12/24 00:51:43;;;;;;;10.00;5.50;;;20.60;80.80;;;;;;5040437;28;20599;-63
2023/12/24 00:54:10;;;;;;;13.43;5.55;;;20.60;80.90;;;;;;5039126;28;20210;-63
2023/12/24 00:56:37;;;;;;;9.35;4.18;;;20.60;80.60;;;;;;5040608;28;20195;-63
2023/12/24 00:59:04;;;;;;;9.15;4.90;;;20.60;80.80;;;;;;5037271;28;20198;-63
2023/12/24 01:01:31;;;;;;;13.23;5.70;;;20.70;80.60;;;;;;5037309;28;20659;-63
2023/12/24 01:03:57;;;;;;;7.55;4.55;;;20.60;80.30;;;;;;5038737;28;20203;-63
2023/12/24 01:06:24;;;;;;;7.00;3.65;;;20.60;80.80;;;;;;5041463;28;20207;-63
2023/12/24 01:08:52;;;;;;;8.48;4.57;;;20.60;80.30;;;;;;5036507;28;20206;-64
2023/12/24 01:11:19;;;;;;;11.50;4.35;;;20.60;80.60;;;;;;5037721;28;20210;-63
2023/12/24 01:13:46;;;;;;;6.45;4.35;;;20.60;80.80;;;;;;5035009;28;20934;-62
2023/12/24 01:16:12;;;;;;;6.43;4.70;;;20.60;80.90;;;;;;5036803;28;20532;-63
2023/12/24 01:18:39;;;;;;;7.70;4.20;;;20.60;80.70;;;;;;5038877;28;20195;-62
2023/12/24 01:21:06;;;;;;;8.43;4.40;;;20.70;80.90;;;;;;5036139;28;20202;-63
2023/12/24 01:23:33;;;;;;;7.80;3.85;;;20.60;80.80;;;;;;5039901;28;20198;-63
2023/12/24 01:26:01;;;;;;;6.88;4.30;;;20.60;80.40;;;;;;5039746;28;20202;-63
2023/12/24 01:28:28;;;;;;;7.90;5.63;;;20.60;80.50;;;;;;5042546;28;20202;-63
2023/12/24 01:30:54;;;;;;;8.07;4.73;;;20.60;80.40;;;;;;5040535;28;20194;-62
2023/12/24 01:33:21;;;;;;;8.90;4.45;;;20.60;80.80;;;;;;5041395;28;20980;-63
2023/12/24 01:35:48;;;;;;;7.28;4.15;;;20.70;80.70;;;;;;5040774;28;20285;-63
2023/12/24 01:38:15;;;;;;;8.20;4.18;;;20.50;80.40;;;;;;5037877;28;20198;-63
2023/12/24 01:40:46;;;;;;;7.35;4.28;;;20.50;80.70;;;;;;5031491;28;20670;-63
2023/12/24 01:43:14;;;;;;;6.53;3.95;;;20.50;80.60;;;;;;5035220;28;20525;-63
2023/12/24 01:45:41;;;;;;;8.27;4.55;;;20.50;80.50;;;;;;5034374;28;20535;-63
2023/12/24 01:48:08;;;;;;;9.35;4.05;;;20.50;80.60;;;;;;5041980;28;20202;-63
2023/12/24 01:50:36;;;;;;;7.15;4.10;;;20.50;80.40;;;;;;5038590;28;20195;-62
2023/12/24 01:53:04;;;;;;;5.68;3.30;;;20.50;80.30;;;;;;5033515;28;20250;-62
2023/12/24 01:55:32;;;;;;;5.18;3.80;;;20.50;80.70;;;;;;5035854;28;20210;-61
2023/12/24 01:57:59;;;;;;;5.72;3.83;;;20.50;80.30;;;;;;5030138;28;20521;-64
2023/12/24 02:00:27;;;;;;;6.13;3.47;;;20.50;81.20;;;;;;5031834;28;21051;-63
2023/12/24 02:02:55;;;;;;;8.02;4.40;;;20.50;80.60;;;;;;5034116;28;20213;-63
2023/12/24 02:05:22;;;;;;;8.25;3.70;;;20.40;80.20;;;;;;5036411;28;20809;-64
2023/12/24 02:07:50;;;;;;;6.38;3.28;;;20.40;80.60;;;;;;5034325;28;20788;-63
2023/12/24 02:10:16;;;;;;;8.68;4.40;;;20.40;80.20;;;;;;5035553;28;20810;-63
2023/12/24 02:12:43;;;;;;;7.85;4.00;;;20.40;80.50;;;;;;5031605;28;20202;-62
2023/12/24 02:15:10;;;;;;;5.38;3.42;;;20.50;80.60;;;;;;5031976;28;20265;-63
2023/12/24 02:17:39;;;;;;;6.10;3.47;;;20.40;80.40;;;;;;5036044;28;20191;-62
2023/12/24 02:20:07;;;;;;;7.53;3.22;;;20.40;80.40;;;;;;5033807;28;20671;-62
2023/12/24 02:22:35;;;;;;;5.93;4.95;;;20.40;80.40;;;;;;5033176;28;20198;-63
2023/12/24 02:25:02;;;;;;;6.43;3.55;;;20.40;80.20;;;;;;5030948;28;20199;-61
2023/12/24 02:27:34;;;;;;;4.82;3.85;;;20.40;80.30;;;;;;5034964;28;20191;-62
2023/12/24 02:30:06;;;;;;;6.70;4.75;;;20.40;80.10;;;;;;5032674;28;20214;-63
2023/12/24 02:32:35;;;;;;;5.75;3.42;;;20.30;80.30;;;;;;5037258;28;20206;-63
2023/12/24 02:35:04;;;;;;;6.00;2.90;;;20.40;80.30;;;;;;5035744;28;20201;-63
2023/12/24 02:37:32;;;;;;;4.18;2.72;;;20.40;80.10;;;;;;5036456;28;20191;-63
2023/12/24 02:40:00;;;;;;;4.70;3.45;;;20.40;80.30;;;;;;5034440;28;20536;-63
2023/12/24 02:42:27;;;;;;;4.65;2.78;;;20.40;80.40;;;;;;5047698;28;20296;-63
2023/12/24 02:44:54;;;;;;;6.70;3.50;;;20.40;80.10;;;;;;5037210;28;20203;-62
2023/12/24 02:49:47;;;;;;;5.90;3.30;;;20.30;80.30;;;;;;5143062;22;20722;-84
2023/12/24 02:52:13;;;;;;;6.25;3.95;;;20.30;80.30;;;;;;5023675;28;20201;-83
2023/12/24 02:54:40;;;;;;;6.05;3.22;;;20.30;80.20;;;;;;5026045;28;20680;-84
2023/12/24 02:57:08;;;;;;;5.53;3.47;;;20.30;79.80;;;;;;5021205;28;20199;-86
2023/12/24 02:59:35;;;;;;;6.25;3.13;;;20.30;80.00;;;;;;5021762;28;20205;-85
2023/12/24 03:02:02;;;;;;;5.18;2.95;;;20.30;79.80;;;;;;5027079;28;20305;-87
2023/12/24 03:04:28;;;;;;;4.90;2.92;;;20.30;80.00;;;;;;5026212;28;20205;-87
2023/12/24 03:06:55;;;;;;;6.38;3.30;;;20.30;79.80;;;;;;5026310;28;20203;-84
2023/12/24 03:09:22;;;;;;;6.72;4.60;;;20.30;79.80;;;;;;5022451;28;20719;-87
2023/12/24 03:11:49;;;;;;;5.78;3.42;;;20.30;80.30;;;;;;5025977;28;20208;-88
2023/12/24 03:14:17;;;;;;;5.20;3.65;;;20.30;79.80;;;;;;5025585;28;20215;-87
2023/12/24 03:16:43;;;;;;;4.10;3.53;;;20.30;80.20;;;;;;5026789;28;20293;-85
2023/12/24 03:19:10;;;;;;;3.53;2.70;;;20.30;80.20;;;;;;5025841;28;20853;-86
2023/12/24 03:21:40;;;;;;;3.15;2.72;;;20.30;80.10;;;;;;5027322;28;20214;-85
2023/12/24 03:24:07;;;;;;;6.45;3.72;;;20.30;80.20;;;;;;5019671;28;20196;-86
2023/12/24 03:26:34;;;;;;;5.47;3.35;;;20.30;79.80;;;;;;5028252;28;20210;-85
2023/12/24 03:29:05;;;;;;;3.67;2.85;;;20.30;79.70;;;;;;5025183;28;20226;-87
2023/12/24 03:31:33;;;;;;;5.20;3.15;;;20.30;80.10;;;;;;5027245;28;20332;-86
2023/12/24 03:34:00;;;;;;;6.18;3.17;;;20.20;79.70;;;;;;5027475;28;20262;-87
2023/12/24 03:36:27;;;;;;;5.93;2.72;;;20.20;79.60;;;;;;5029957;28;20683;-87
2023/12/24 03:38:54;;;;;;;4.97;2.67;;;20.30;80.00;;;;;;5028500;28;20195;-87
2023/12/24 03:41:20;;;;;;;5.78;2.60;;;20.30;80.00;;;;;;5027793;28;20214;-86
2023/12/24 03:43:47;;;;;;;5.35;2.95;;;20.20;79.70;;;;;;5027997;28;20202;-85
2023/12/24 03:46:18;;;;;;;6.10;3.45;;;20.20;79.70;;;;;;5024652;28;20195;-87
2023/12/24 03:48:47;;;;;;;5.38;3.25;;;20.30;79.90;;;;;;5027138;28;20198;-86
2023/12/24 03:51:14;;;;;;;5.83;3.53;;;20.30;79.70;;;;;;5029618;28;20665;-88
2023/12/24 03:53:43;;;;;;;4.78;3.08;;;20.20;79.80;;;;;;5025269;28;20458;-86
2023/12/24 03:56:10;;;;;;;5.72;3.05;;;20.20;79.80;;;;;;5022986;28;20265;-87
2023/12/24 03:58:40;;;;;;;3.97;2.65;;;20.20;79.70;;;;;;5023524;28;20199;-81
2023/12/24 04:01:08;;;;;;;5.50;2.95;;;20.20;79.50;;;;;;5021205;28;20575;-83
2023/12/24 04:03:35;;;;;;;5.53;2.47;;;20.20;79.60;;;;;;5023191;28;20195;-81
2023/12/24 04:06:10;;;;;;;4.45;3.45;;;20.20;79.80;;;;;;5023937;28;20204;-82
2023/12/24 04:08:36;;;;;;;3.45;2.75;;;20.20;79.80;;;;;;5022582;28;20206;-83
2023/12/24 04:11:03;;;;;;;5.10;3.38;;;20.20;79.90;;;;;;5025004;28;20701;-83
2023/12/24 04:13:30;;;;;;;3.15;2.38;;;20.20;79.70;;;;;;5024330;28;20207;-82
2023/12/24 04:15:57;;;;;;;3.78;2.35;;;20.20;79.60;;;;;;5024307;28;20707;-83
2023/12/24 04:18:23;;;;;;;6.50;3.23;;;20.20;79.80;;;;;;5023854;28;20199;-81
2023/12/24 04:20:50;;;;;;;4.80;2.90;;;20.20;79.80;;;;;;5023684;28;20489;-81
2023/12/24 04:23:18;;;;;;;5.20;3.55;;;20.20;79.80;;;;;;5022817;28;20566;-81
2023/12/24 04:25:45;;;;;;;3.90;2.60;;;20.20;79.70;;;;;;5022091;28;20337;-81
2023/12/24 04:28:12;;;;;;;4.05;2.13;;;20.10;79.60;;;;;;5023111;28;20207;-81
2023/12/24 04:30:39;;;;;;;5.82;2.80;;;20.10;79.60;;;;;;5022157;28;20231;-82
2023/12/24 04:33:05;;;;;;;4.72;2.25;;;20.10;79.60;;;;;;5021300;28;20192;-84
2023/12/24 04:35:32;;;;;;;5.13;3.05;;;20.20;79.70;;;;;;5023818;28;20282;-81
2023/12/24 04:37:59;;;;;;;4.70;2.55;;;20.10;79.30;;;;;;5023884;28;20211;-83
2023/12/24 04:40:28;;;;;;;3.05;2.60;;;20.20;79.50;;;;;;5023641;28;20207;-83
2023/12/24 04:42:54;;;;;;;3.90;2.45;;;20.10;79.70;;;;;;5021160;28;20262;-84
2023/12/24 04:45:21;;;;;;;4.53;2.85;;;20.10;79.50;;;;;;5024745;28;20204;-80
2023/12/24 04:47:48;;;;;;;7.53;3.13;;;20.20;79.70;;;;;;5024255;28;20204;-81
2023/12/24 04:50:15;;;;;;;4.57;3.00;;;20.10;79.90;;;;;;5023564;28;20222;-83
2023/12/24 04:52:42;;;;;;;6.90;3.05;;;20.10;79.40;;;;;;5024454;28;20614;-81
2023/12/24 04:55:09;;;;;;;3.38;2.33;;;20.10;79.50;;;;;;5023202;28;20192;-84
2023/12/24 04:57:37;;;;;;;6.75;2.85;;;20.10;79.50;;;;;;5023466;28;20680;-83
2023/12/24 05:00:05;;;;;;;3.33;1.95;;;20.10;79.50;;;;;;5022602;28;20202;-81
2023/12/24 05:02:33;;;;;;;3.35;2.35;;;20.10;79.30;;;;;;5022270;28;20210;-82
2023/12/24 05:05:00;;;;;;;4.95;2.20;;;20.10;79.30;;;;;;5023157;28;20211;-83
2023/12/24 05:07:27;;;;;;;3.58;1.90;;;20.10;79.30;;;;;;5022107;28;20211;-83
2023/12/24 05:09:55;;;;;;;4.53;2.33;;;20.10;79.30;;;;;;5022474;28;20242;-86
2023/12/24 05:12:21;;;;;;;5.07;2.10;;;20.10;79.30;;;;;;5016847;28;20345;-86
2023/12/24 05:14:50;;;;;;;4.10;2.63;;;20.10;79.50;;;;;;5022506;28;20199;-84
2023/12/24 05:17:16;;;;;;;4.00;2.40;;;20.10;79.70;;;;;;5023567;28;20200;-85
2023/12/24 05:19:43;;;;;;;2.95;2.25;;;20.10;79.50;;;;;;5022291;28;20815;-85
2023/12/24 05:22:10;;;;;;;4.50;2.70;;;20.10;79.30;;;;;;5022660;28;20202;-85
2023/12/24 05:24:36;;;;;;;4.72;2.95;;;20.10;79.20;;;;;;5021956;28;20209;-86
2023/12/24 05:27:03;;;;;;;3.10;2.30;;;20.10;79.50;;;;;;5020478;28;20645;-85
2023/12/24 05:29:30;;;;;;;3.17;2.30;;;20.10;79.30;;;;;;5021514;28;20211;-84
2023/12/24 05:31:58;;;;;;;3.08;2.20;;;20.10;79.20;;;;;;5023347;28;20203;-83
2023/12/24 05:34:25;;;;;;;5.72;2.38;;;20.10;79.30;;;;;;5023253;28;20199;-85
2023/12/24 05:36:52;;;;;;;3.47;2.00;;;20.10;79.40;;;;;;5022203;28;20208;-86
2023/12/24 05:39:19;;;;;;;5.07;2.83;;;20.10;79.20;;;;;;5023117;28;20645;-86
2023/12/24 05:41:46;;;;;;;3.70;2.75;;;20.10;79.40;;;;;;5020859;28;21164;-86
2023/12/24 05:44:12;;;;;;;2.30;1.73;;;20.00;78.90;;;;;;5020204;28;20210;-86
2023/12/24 05:46:39;;;;;;;5.65;2.95;;;20.00;79.20;;;;;;5023076;28;20206;-86
2023/12/24 05:49:07;;;;;;;3.63;2.05;;;20.00;79.10;;;;;;5021718;28;20210;-85
2023/12/24 05:51:34;;;;;;;2.67;2.45;;;20.00;79.40;;;;;;5023931;28;20226;-85
2023/12/24 05:54:01;;;;;;;3.83;2.70;;;20.00;79.20;;;;;;5022288;28;20265;-87
2023/12/24 05:56:27;;;;;;;3.20;2.65;;;20.10;79.30;;;;;;5023642;28;20191;-86
2023/12/24 05:58:54;;;;;;;5.18;2.60;;;20.00;79.10;;;;;;5022035;28;20195;-86
2023/12/24 06:01:21;;;;;;;4.55;2.45;;;20.00;79.00;;;;;;5022164;28;20650;-86
2023/12/24 06:03:47;;;;;;;3.70;2.78;;;20.00;79.20;;;;;;5019914;28;20330;-86
2023/12/24 06:06:15;;;;;;;3.33;2.00;;;20.00;79.20;;;;;;5020739;28;20208;-87
2023/12/24 06:08:42;;;;;;;4.20;2.10;;;20.00;79.30;;;;;;5020771;28;20196;-81
2023/12/24 06:11:16;;;;;;;4.05;2.40;;;20.00;79.10;;;;;;5022971;28;20222;-86
2023/12/24 06:13:43;;;;;;;3.55;2.40;;;20.00;79.30;;;;;;5019479;28;20202;-85
2023/12/24 06:16:11;;;;;;;5.53;3.05;;;20.00;79.00;;;;;;5020929;28;20200;-85
2023/12/24 06:18:39;;;;;;;3.13;1.88;;;20.00;79.20;;;;;;5021861;28;20681;-88
2023/12/24 06:21:05;;;;;;;2.90;2.50;;;20.00;79.00;;;;;;5021681;28;20191;-90
2023/12/24 06:23:33;;;;;;;5.13;2.25;;;20.00;78.90;;;;;;5020319;28;20451;-88
2023/12/24 06:26:00;;;;;;;2.70;2.50;;;20.00;79.20;;;;;;5021622;28;20200;-89
2023/12/24 06:28:27;;;;;;;2.85;2.13;;;20.00;79.20;;;;;;5019323;28;20329;-88
2023/12/24 06:30:55;;;;;;;3.08;2.38;;;20.00;79.00;;;;;;5021099;28;20211;-83
2023/12/24 06:33:22;;;;;;;2.15;1.58;;;20.00;79.30;;;;;;5023903;28;20298;-86
2023/12/24 06:35:49;;;;;;;2.65;1.80;;;20.00;79.30;;;;;;5022549;28;20214;-85
2023/12/24 06:38:16;;;;;;;3.78;2.13;;;20.00;79.30;;;;;;5022632;28;20205;-87
2023/12/24 06:40:44;;;;;;;4.22;2.63;;;20.00;79.40;;;;;;5022250;28;20200;-86
2023/12/24 06:43:11;;;;;;;2.67;1.85;;;19.90;79.30;;;;;;5021624;28;20199;-86
2023/12/24 06:45:38;;;;;;;3.45;2.65;;;19.90;79.90;;;;;;5020512;28;20195;-87
2023/12/24 06:48:05;;;;;;;3.58;2.40;;;20.00;79.30;;;;;;5020830;28;20566;-86
2023/12/24 06:50:32;;;;;;;2.45;1.88;;;19.90;79.30;;;;;;5020988;28;20219;-86
2023/12/24 06:52:59;;;;;;;5.57;2.47;;;19.90;79.90;;;;;;5020878;28;20279;-85
2023/12/24 06:55:25;;;;;;;2.75;2.10;;;19.90;79.30;;;;;;5022288;28;20682;-86
2023/12/24 06:57:53;;;;;;;4.32;1.95;;;20.00;79.30;;;;;;5022008;28;20211;-85
2023/12/24 07:00:20;;;;;;;2.47;1.83;;;19.90;79.30;;;;;;5018341;28;20977;-85
2023/12/24 07:02:47;;;;;;;2.92;2.05;;;20.00;79.30;;;;;;5022385;28;20827;-88
2023/12/24 07:05:14;;;;;;;2.17;1.85;;;19.90;79.30;;;;;;5023430;28;20210;-88
2023/12/24 07:07:40;;;;;;;3.65;2.40;;;19.90;79.20;;;;;;5027741;28;20601;-87
2023/12/24 07:10:08;;;;;;;2.38;1.92;;;19.90;79.10;;;;;;5024708;28;20230;-87
2023/12/24 07:12:35;;;;;;;2.63;1.80;;;19.90;78.90;;;;;;5023466;28;20203;-87
2023/12/24 07:15:04;;;;;;;4.85;1.92;;;19.90;79.20;;;;;;5024611;28;20237;-87
2023/12/24 07:17:30;;;;;;;3.55;2.17;;;19.90;78.90;;;;;;5025891;28;20210;-87
2023/12/24 07:19:57;;;;;;;2.78;2.08;;;19.90;78.90;;;;;;5023019;28;20206;-84
2023/12/24 07:22:24;;;;;;;2.33;2.00;;;19.90;79.20;;;;;;5021980;28;20207;-87
2023/12/24 07:24:51;;;;;;;3.13;1.98;;;19.80;79.10;;;;;;5025435;28;20208;-86
2023/12/24 07:27:18;;;;;;;3.67;1.85;;;19.80;79.10;;;;;;5024733;28;20572;-86
2023/12/24 07:29:44;;;;;;;5.30;1.88;;;19.80;78.90;;;;;;5025623;28;20202;-81
2023/12/24 07:32:13;;;;;;;3.40;2.25;;;19.80;79.20;;;;;;5024232;28;20574;-80
2023/12/24 07:34:39;;;;;;;2.60;1.77;;;19.80;79.10;;;;;;5025353;28;20290;-80
2023/12/24 07:37:06;;;;;;;5.00;2.00;;;19.80;79.00;;;;;;5024012;28;20449;-82
2023/12/24 07:39:33;;;;;;;2.95;2.25;;;19.90;79.60;;;;;;5024953;28;20199;-80
2023/12/24 07:42:00;;;;;;;3.42;2.88;;;19.80;79.90;;;;;;5024424;28;20810;-82
2023/12/24 07:44:27;;;;;;;3.05;2.63;;;19.90;80.00;;;;;;5021568;28;20203;-82
2023/12/24 07:46:53;;;;;;;2.22;1.90;;;19.90;80.10;;;;;;5022924;28;20882;-80
2023/12/24 07:49:21;;;;;;;4.10;1.60;;;19.90;80.20;;;;;;5025494;28;20196;-80
2023/12/24 07:51:48;;;;;;;2.28;1.98;;;19.90;80.10;;;;;;5024839;28;20227;-81
2023/12/24 07:54:15;;;;;;;2.33;1.58;;;19.90;80.30;;;;;;5024029;28;20203;-82
2023/12/24 07:56:42;;;;;;;1.90;1.50;;;19.90;80.30;;;;;;5022284;28;20223;-80
2023/12/24 07:59:08;;;;;;;1.67;1.58;;;20.00;80.40;;;;;;5022260;28;20691;-84
2023/12/24 08:01:37;;;;;;;3.05;1.40;;;20.00;80.60;;;;;;5024092;28;20206;-81
2023/12/24 08:04:04;;;;;;;3.10;1.88;;;20.00;80.40;;;;;;5023192;28;20763;-81
2023/12/24 08:06:32;;;;;;;1.90;1.65;;;20.00;80.30;;;;;;5021644;28;20203;-81
2023/12/24 08:08:59;;;;;;;2.45;1.40;;;20.10;80.50;;;;;;5022992;28;20203;-80
2023/12/24 08:11:26;;;;;;;2.75;2.03;;;20.10;80.50;;;;;;5023527;28;20219;-82
2023/12/24 08:13:54;;;;;;;2.85;2.15;;;20.10;80.40;;;;;;5021329;28;21244;-82
2023/12/24 08:16:21;;;;;;;2.00;1.70;;;20.10;80.30;;;;;;5019868;28;20200;-83
2023/12/24 08:18:47;;;;;;;2.30;2.00;;;20.10;80.40;;;;;;5023017;28;20200;-82
2023/12/24 08:21:14;;;;;;;2.10;1.50;;;20.10;80.40;;;;;;5022594;28;20214;-82
2023/12/24 08:23:42;;;;;;;2.40;2.00;;;20.10;80.00;;;;;;5022172;28;20199;-84
2023/12/24 08:26:09;;;;;;;2.25;1.70;;;20.10;80.10;;;;;;5022650;28;20223;-82
2023/12/24 08:28:35;;;;;;;1.95;1.80;;;20.20;80.20;;;;;;5021296;28;20195;-81
2023/12/24 08:31:02;;;;;;;2.72;2.03;;;20.20;80.10;;;;;;5022989;28;20227;-82
2023/12/24 08:33:29;;;;;;;3.45;3.08;;;20.20;80.40;;;;;;5021474;28;20211;-83
2023/12/24 08:35:56;;;;;;;2.00;1.33;;;19.50;79.70;;;;;;5021554;28;20295;-81
2023/12/24 08:38:22;;;;;;;2.25;1.80;;;20.20;80.10;;;;;;5022444;28;20493;-82
2023/12/24 08:40:50;;;;;;;2.35;1.63;;;20.20;80.10;;;;;;5021799;28;20206;-82
2023/12/24 08:43:17;;;;;;;2.40;1.48;;;20.20;80.20;;;;;;5024113;28;20778;-81
2023/12/24 08:45:44;;;;;;;1.98;1.40;;;20.30;80.10;;;;;;5023634;28;20491;-82
2023/12/24 08:48:11;;;;;;;2.15;1.95;;;20.30;80.10;;;;;;5023171;28;20203;-81
2023/12/24 08:50:38;;;;;;;1.83;1.30;;;20.30;80.00;;;;;;5021409;28;20210;-81
2023/12/24 08:53:04;;;;;;;2.80;1.45;;;20.30;80.00;;;;;;5021497;28;20203;-78
2023/12/24 08:55:31;;;;;;;3.28;2.00;;;20.30;79.90;;;;;;5023545;28;20641;-79
2023/12/24 08:58:00;;;;;;;2.38;1.40;;;20.30;79.80;;;;;;5021524;28;20479;-81
2023/12/24 09:00:27;;;;;;;1.98;1.35;;;20.30;79.70;;;;;;5020701;28;20200;-79
2023/12/24 09:02:53;;;;;;;2.80;1.53;;;20.30;79.90;;;;;;5019788;28;20206;-79
2023/12/24 09:05:20;;;;;;;2.10;1.40;;;20.30;79.80;;;;;;5018951;28;20454;-79
2023/12/24 09:07:47;;;;;;;1.80;1.50;;;20.30;79.70;;;;;;5020895;28;20199;-80
2023/12/24 09:10:14;;;;;;;2.70;1.55;;;20.30;79.80;;;;;;5018978;28;20214;-81
2023/12/24 09:12:41;;;;;;;3.70;1.65;;;20.30;79.60;;;;;;5021117;28;20231;-81
2023/12/24 09:15:09;;;;;;;3.17;1.65;;;20.30;79.80;;;;;;5019643;28;20191;-81
2023/12/24 09:17:36;;;;;;;3.08;1.60;;;20.30;79.70;;;;;;5021827;28;20279;-78
2023/12/24 09:20:03;;;;;;;2.58;1.55;;;20.30;79.60;;;;;;5019590;28;21145;-78
2023/12/24 09:22:31;;;;;;;2.67;2.15;;;20.30;79.60;;;;;;5017808;28;20908;-80
2023/12/24 09:24:58;;;;;;;1.50;1.40;;;20.30;79.50;;;;;;5019355;28;20203;-78
2023/12/24 09:27:24;;;;;;;1.40;1.27;;;20.30;79.80;;;;;;5020670;28;20205;-78
2023/12/24 09:29:51;;;;;;;1.40;1.13;;;20.30;80.00;;;;;;5020483;28;20191;-78
2023/12/24 09:32:19;;;;;;;3.22;1.30;;;20.30;80.00;;;;;;5017782;28;20223;-79
2023/12/24 09:34:46;;;;;;;2.10;1.38;;;20.30;80.10;;;;;;5020410;28;20191;-79
2023/12/24 09:37:13;;;;;;;4.38;1.70;;;20.30;80.20;;;;;;5018917;28;20238;-78
2023/12/24 09:39:40;;;;;;;2.05;1.40;;;20.30;80.10;;;;;;5019001;28;20218;-79
2023/12/24 09:42:07;;;;;;;1.80;1.20;;;20.30;80.10;;;;;;5020193;28;20207;-78
2023/12/24 09:44:34;;;;;;;1.50;1.40;;;20.30;80.00;;;;;;5020562;28;20207;-80
2023/12/24 09:47:01;;;;;;;2.95;1.70;;;20.40;80.10;;;;;;5019870;28;20239;-79
2023/12/24 09:49:30;;;;;;;2.25;1.38;;;20.40;80.10;;;;;;5018932;28;20227;-80
2023/12/24 09:51:59;;;;;;;1.75;1.23;;;20.40;80.00;;;;;;5018018;28;20224;-84
2023/12/24 09:54:26;;;;;;;2.15;1.42;;;20.40;80.10;;;;;;5019319;28;20230;-84
2023/12/24 09:56:53;;;;;;;1.83;1.30;;;20.40;80.10;;;;;;5020308;28;20203;-84
2023/12/24 09:59:20;;;;;;;2.17;1.45;;;20.40;80.00;;;;;;5018549;28;20208;-84
2023/12/24 10:01:46;;;;;;;1.95;1.50;;;20.40;80.00;;;;;;5019278;28;20235;-84
2023/12/24 10:04:13;;;;;;;2.20;1.50;;;20.40;80.00;;;;;;5017830;28;20208;-84
2023/12/24 10:06:55;;;;;;;1.75;1.40;;;20.40;80.50;;;;;;5001810;28;20227;-84
2023/12/24 10:09:24;;;;;;;1.95;1.23;;;20.40;80.10;;;;;;5014807;28;20208;-86
2023/12/24 10:12:04;;;;;;;2.85;1.42;;;20.40;80.30;;;;;;5019669;28;20223;-86
2023/12/24 10:14:32;;;;;;;1.67;1.30;;;20.50;80.80;;;;;;5018449;28;20721;-85
2023/12/24 10:17:00;;;;;;;2.35;1.70;;;20.50;80.40;;;;;;5019192;28;20278;-84
2023/12/24 10:19:28;;;;;;;1.85;1.50;;;20.50;80.60;;;;;;5018091;28;20206;-85
2023/12/24 10:22:07;;;;;;;1.63;1.30;;;20.50;80.30;;;;;;5021833;28;20680;-84
2023/12/24 10:24:36;;;;;;;1.90;1.70;;;20.50;80.10;;;;;;5017845;28;20246;-84
2023/12/24 10:27:07;;;;;;;1.83;1.35;;;20.50;80.10;;;;;;5019736;28;20199;-85
2023/12/24 10:29:34;;;;;;;2.37;1.20;;;20.50;80.00;;;;;;5018795;28;20298;-83
2023/12/24 10:32:01;;;;;;;1.65;1.20;;;20.50;80.00;;;;;;5019499;28;20487;-84
2023/12/24 10:34:29;;;;;;;2.13;1.55;;;20.50;80.10;;;;;;5021411;28;20203;-85
2023/12/24 10:36:56;;;;;;;1.60;1.27;;;20.50;80.10;;;;;;5019278;28;21436;-84
2023/12/24 10:39:25;;;;;;;1.77;1.23;;;20.50;80.00;;;;;;5016270;28;20200;-85
2023/12/24 10:41:54;;;;;;;2.10;1.70;;;20.50;80.10;;;;;;5020677;28;20674;-85
2023/12/24 10:44:21;;;;;;;1.80;1.30;;;20.50;79.80;;;;;;5020052;28;20203;-84
2023/12/24 10:46:48;;;;;;;3.10;1.20;;;20.50;80.60;;;;;;5021170;28;20205;-83
2023/12/24 10:49:15;;;;;;;2.17;1.60;;;20.50;80.10;;;;;;5022694;28;20199;-81
2023/12/24 10:51:43;;;;;;;6.85;1.50;;;20.50;80.80;;;;;;5024822;28;20207;-84
2023/12/24 10:54:10;;;;;;;1.42;1.10;;;20.60;80.90;;;;;;5020715;28;20201;-83
2023/12/24 10:56:55;;;;;;;5.15;1.45;;;20.50;81.40;;;;;;5021851;28;20203;-82
2023/12/24 10:59:36;;;;;;;3.30;1.08;;;20.50;81.80;;;;;;5024535;28;20654;-83
2023/12/24 11:02:03;;;;;;;3.65;1.13;;;20.50;81.70;;;;;;5019959;28;21123;-88
2023/12/24 11:04:43;;;;;;;7.63;1.42;;;20.60;81.70;;;;;;5023276;28;20200;-89
2023/12/24 11:07:09;;;;;;;1.77;1.10;;;20.60;81.70;;;;;;5022321;28;20204;-86
2023/12/24 11:09:44;;;;;;;5.60;1.20;;;20.60;82.00;;;;;;5029674;28;20203;-90
2023/12/24 11:12:30;;;;;;;3.20;1.30;;;20.60;82.50;;;;;;5027382;28;20338;-89
2023/12/24 11:14:57;;;;;;;2.30;1.65;;;20.60;82.70;;;;;;5023057;28;20573;-84
2023/12/24 11:17:49;;;;;;;1.63;1.20;;;20.60;83.00;;;;;;5021617;28;20195;-83
2023/12/24 11:20:40;;;;;;;1.50;1.08;;;20.70;83.20;;;;;;5020411;28;20285;-83
2023/12/24 11:23:10;;;;;;;2.13;1.50;;;20.70;83.20;;;;;;5018960;28;20207;-83
2023/12/24 11:25:37;;;;;;;2.17;1.20;;;20.70;83.30;;;;;;5020872;28;20203;-84
2023/12/24 11:28:06;;;;;;;1.50;1.20;;;20.70;83.10;;;;;;5023248;28;20203;-84
2023/12/24 11:31:03;;;;;;;1.75;1.40;;;20.80;83.20;;;;;;5022597;28;20195;-84
2023/12/24 11:33:45;;;;;;;3.97;2.30;;;20.80;83.20;;;;;;5022956;28;20242;-84
2023/12/24 11:36:14;;;;;;;4.80;3.65;;;20.80;83.10;;;;;;5024026;28;20458;-84
2023/12/24 11:38:41;;;;;;;16.90;8.67;;;20.90;83.10;;;;;;5023745;28;20753;-84
2023/12/24 11:41:09;;;;;;;12.30;7.93;;;20.90;83.30;;;;;;5021444;28;21194;-85
2023/12/24 11:43:38;;;;;;;19.08;11.25;;;20.90;83.30;;;;;;5020290;28;20465;-83
2023/12/24 11:46:08;;;;;;;18.60;9.13;;;20.90;83.50;;;;;;5020450;28;20208;-83
2023/12/24 11:48:35;;;;;;;24.23;8.37;;;21.00;83.60;;;;;;5023809;28;20465;-87
2023/12/24 11:51:03;;;;;;;24.60;10.63;;;21.00;83.30;;;;;;5022389;28;20469;-83
2023/12/24 11:53:32;;;;;;;15.90;8.87;;;21.00;83.00;;;;;;5017748;28;20480;-89
2023/12/24 11:56:08;;;;;;;15.53;7.20;;;21.00;83.00;;;;;;5023034;28;20465;-85
2023/12/24 11:58:37;;;;;;;18.27;9.10;;;21.10;83.00;;;;;;5022072;28;20505;-86
2023/12/24 12:01:04;;;;;;;17.03;8.00;;;21.10;83.10;;;;;;5021900;28;20465;-84
2023/12/24 12:03:31;;;;;;;20.33;9.67;;;21.10;83.00;;;;;;5025579;28;20457;-83
2023/12/24 12:05:58;;;;;;;21.10;7.60;;;21.10;82.80;;;;;;5020400;28;20450;-85
2023/12/24 12:08:25;;;;;;;16.13;8.67;;;21.20;82.50;;;;;;5021089;28;20606;-85
2023/12/24 12:10:52;;;;;;;18.53;8.53;;;21.10;82.40;;;;;;5023406;28;20458;-83
2023/12/24 12:13:19;;;;;;;15.53;8.43;;;21.10;82.20;;;;;;5021823;28;20482;-87
2023/12/24 12:15:47;;;;;;;11.60;7.73;;;21.10;82.00;;;;;;5021229;28;20891;-87
2023/12/24 12:18:15;;;;;;;17.27;8.23;;;21.10;81.90;;;;;;5025276;28;20654;-87
2023/12/24 12:20:41;;;;;;;12.27;7.07;;;21.10;81.90;;;;;;5023692;28;20453;-82
2023/12/24 12:23:09;;;;;;;16.00;7.93;;;21.10;81.80;;;;;;5022198;28;20485;-87
2023/12/24 12:25:36;;;;;;;19.63;8.50;;;21.10;81.80;;;;;;5025373;28;20484;-85
2023/12/24 12:28:03;;;;;;;20.95;8.95;;;21.10;81.80;;;;;;5024325;28;20502;-86
2023/12/24 12:30:30;;;;;;;24.63;7.70;;;21.10;81.80;;;;;;5023314;28;20200;-86
2023/12/24 12:32:58;;;;;;;17.50;9.30;;;21.10;81.80;;;;;;5026340;28;20483;-86
2023/12/24 12:35:25;;;;;;;15.30;7.53;;;21.10;81.70;;;;;;5024861;28;20467;-86
2023/12/24 12:37:52;;;;;;;13.87;6.57;;;21.10;81.90;;;;;;5023174;28;20968;-87
2023/12/24 12:40:19;;;;;;;15.25;6.80;;;21.10;81.80;;;;;;5019002;28;20790;-88
2023/12/24 12:42:46;;;;;;;14.83;7.33;;;21.10;81.80;;;;;;5025351;28;20623;-87
2023/12/24 12:45:13;;;;;;;13.43;7.27;;;21.10;81.50;;;;;;5023212;28;21007;-84
2023/12/24 12:47:42;;;;;;;14.27;6.83;;;21.10;82.00;;;;;;5024367;28;20472;-90
2023/12/24 12:50:11;;;;;;;9.23;6.13;;;21.20;82.00;;;;;;5023689;28;20473;-88